createdAt,value
2023-05-01T00:01:08.149Z,1.95
2023-05-01T00:03:35.136Z,1.30
2023-05-01T00:06:04.850Z,1.50
2023-05-01T00:08:32.418Z,1.60
2023-05-01T00:11:05.688Z,1.35
2023-05-01T00:13:32.295Z,1.52
2023-05-01T00:15:58.725Z,1.50
2023-05-01T00:18:25.142Z,1.52
2023-05-01T00:20:51.560Z,1.50
2023-05-01T00:23:17.915Z,1.50
2023-05-01T00:25:44.311Z,1.75
2023-05-01T00:28:11.364Z,1.52
2023-05-01T00:30:37.783Z,1.85
2023-05-01T00:33:04.204Z,1.70
2023-05-01T00:35:30.933Z,1.90
2023-05-01T00:37:57.305Z,1.65
2023-05-01T00:40:23.701Z,2.03
2023-05-01T00:42:50.044Z,2.00
2023-05-01T00:45:16.389Z,1.73
2023-05-01T00:47:42.858Z,1.60
2023-05-01T00:50:09.795Z,1.85
2023-05-01T00:52:36.367Z,1.75
2023-05-01T00:55:05.295Z,1.70
2023-05-01T00:57:32.524Z,1.63
2023-05-01T00:59:59.032Z,1.70
2023-05-01T01:02:27.230Z,1.70
2023-05-01T01:04:54.139Z,1.70
2023-05-01T01:07:29.410Z,1.90
2023-05-01T01:10:01.008Z,1.90
2023-05-01T01:12:31.444Z,1.58
2023-05-01T01:15:08.999Z,1.70
2023-05-01T01:17:49.494Z,1.80
2023-05-01T01:20:33.000Z,1.83
2023-05-01T01:23:19.985Z,1.63
2023-05-01T01:26:11.113Z,1.48
2023-05-01T01:29:16.807Z,1.85
2023-05-01T01:32:14.114Z,1.73
2023-05-01T01:34:47.553Z,1.52
2023-05-01T01:37:30.291Z,1.70
2023-05-01T01:40:09.882Z,1.40
2023-05-01T01:42:54.885Z,2.20
2023-05-01T01:45:30.594Z,1.75
2023-05-01T01:47:57.599Z,1.95
2023-05-01T01:50:27.065Z,2.10
2023-05-01T01:52:55.293Z,1.73
2023-05-01T01:55:27.600Z,2.10
2023-05-01T01:57:54.169Z,1.90
2023-05-01T02:00:22.745Z,2.00
2023-05-01T02:02:50.980Z,1.63
2023-05-01T02:05:19.404Z,2.10
2023-05-01T02:07:48.610Z,2.30
2023-05-01T02:10:16.171Z,2.00
2023-05-01T02:12:46.091Z,1.80
2023-05-01T02:15:13.804Z,2.00
2023-05-01T02:17:41.478Z,1.90
2023-05-01T02:20:12.624Z,2.00
2023-05-01T02:22:42.746Z,2.08
2023-05-01T02:25:11.759Z,2.30
2023-05-01T02:27:55.637Z,1.90
2023-05-01T02:30:22.237Z,1.90
2023-05-01T02:32:48.673Z,1.95
2023-05-01T02:35:17.033Z,1.80
2023-05-01T02:37:44.814Z,1.90
2023-05-01T02:40:14.894Z,2.10
2023-05-01T02:42:43.637Z,1.90
2023-05-01T02:45:16.136Z,2.08
2023-05-01T02:47:45.913Z,1.80
2023-05-01T02:50:13.872Z,2.15
2023-05-01T02:52:41.042Z,1.90
2023-05-01T02:55:08.445Z,1.90
2023-05-01T02:57:35.223Z,2.10
2023-05-01T03:00:01.617Z,2.22
2023-05-01T03:02:27.998Z,2.03
2023-05-01T03:04:54.359Z,1.90
2023-05-01T03:07:20.700Z,2.03
2023-05-01T03:09:47.046Z,1.90
2023-05-01T03:12:13.400Z,2.00
2023-05-01T03:14:39.815Z,1.90
2023-05-01T03:17:06.164Z,1.90
2023-05-01T03:19:34.111Z,2.20
2023-05-01T03:22:00.577Z,2.00
2023-05-01T03:24:26.983Z,2.00
2023-05-01T03:26:53.330Z,1.90
2023-05-01T03:29:19.682Z,2.00
2023-05-01T03:31:46.082Z,2.22
2023-05-01T03:34:12.455Z,2.00
2023-05-01T03:36:38.902Z,2.30
2023-05-01T03:39:05.663Z,1.90
2023-05-01T03:41:32.007Z,2.00
2023-05-01T03:43:58.390Z,2.10
2023-05-01T03:46:24.784Z,1.95
2023-05-01T03:48:51.167Z,2.00
2023-05-01T03:51:17.508Z,2.00
2023-05-01T03:53:43.855Z,1.97
2023-05-01T03:56:10.243Z,2.13
2023-05-01T03:58:36.727Z,1.98
2023-05-01T04:01:03.589Z,2.22
2023-05-01T04:03:30.077Z,2.10
2023-05-01T04:05:57.106Z,2.00
2023-05-01T04:08:24.121Z,2.33
2023-05-01T04:10:50.623Z,2.20
2023-05-01T04:13:17.136Z,2.40
2023-05-01T04:15:46.762Z,2.22
2023-05-01T04:18:13.404Z,2.10
2023-05-01T04:20:40.336Z,2.30
2023-05-01T04:23:06.707Z,2.08
2023-05-01T04:25:33.072Z,1.92
2023-05-01T04:27:59.422Z,2.38
2023-05-01T04:30:25.770Z,2.23
2023-05-01T04:32:52.144Z,2.17
2023-05-01T04:35:18.791Z,2.40
2023-05-01T04:37:45.767Z,2.20
2023-05-01T04:40:12.476Z,2.50
2023-05-01T04:42:38.821Z,2.50
2023-05-01T04:45:06.210Z,2.25
2023-05-01T04:47:32.599Z,2.33
2023-05-01T04:49:59.007Z,2.50
2023-05-01T04:52:25.341Z,2.63
2023-05-01T04:54:51.762Z,2.80
2023-05-01T04:57:18.289Z,2.42
2023-05-01T04:59:44.666Z,2.33
2023-05-01T05:02:11.036Z,2.17
2023-05-01T05:04:37.739Z,2.42
2023-05-01T05:07:04.095Z,2.50
2023-05-01T05:09:30.614Z,2.30
2023-05-01T05:11:56.990Z,2.33
2023-05-01T05:14:23.396Z,2.17
2023-05-01T05:16:50.102Z,2.42
2023-05-01T05:19:16.554Z,2.70
2023-05-01T05:21:42.917Z,2.60
2023-05-01T05:24:09.259Z,2.38
2023-05-01T05:26:35.624Z,2.40
2023-05-01T05:29:02.028Z,2.58
2023-05-01T05:31:28.433Z,2.77
2023-05-01T05:33:54.888Z,2.60
2023-05-01T05:36:21.522Z,2.60
2023-05-01T05:38:47.885Z,2.80
2023-05-01T05:41:14.287Z,2.88
2023-05-01T05:43:40.638Z,3.10
2023-05-01T05:46:07.285Z,2.50
2023-05-01T05:48:33.726Z,2.60
2023-05-01T05:51:00.189Z,2.80
2023-05-01T05:53:26.634Z,2.88
2023-05-01T05:55:53.173Z,2.60
2023-05-01T05:58:23.311Z,3.55
2023-05-01T06:00:50.427Z,2.97
2023-05-01T06:03:17.030Z,2.58
2023-05-01T06:05:44.067Z,2.60
2023-05-01T06:08:11.021Z,2.53
2023-05-01T06:10:39.568Z,2.70
2023-05-01T06:13:14.145Z,2.67
2023-05-01T06:15:41.749Z,2.80
2023-05-01T06:18:08.453Z,3.08
2023-05-01T06:20:35.117Z,2.90
2023-05-01T06:23:01.491Z,2.90
2023-05-01T06:25:27.904Z,2.65
2023-05-01T06:27:54.297Z,2.63
2023-05-01T06:30:21.825Z,2.90
2023-05-01T06:32:48.384Z,3.00
2023-05-01T06:35:15.770Z,3.00
2023-05-01T06:37:42.147Z,2.80
2023-05-01T06:40:09.790Z,2.60
2023-05-01T06:42:40.077Z,2.65
2023-05-01T06:45:07.691Z,3.13
2023-05-01T06:47:34.683Z,2.70
2023-05-01T06:50:02.898Z,2.80
2023-05-01T06:52:31.010Z,3.05
2023-05-01T06:54:57.400Z,3.00
2023-05-01T06:57:23.770Z,3.53
2023-05-01T06:59:50.190Z,2.97
2023-05-01T07:02:16.822Z,2.88
2023-05-01T07:04:44.443Z,2.92
2023-05-01T07:07:11.002Z,2.78
2023-05-01T07:09:37.366Z,3.10
2023-05-01T07:12:04.297Z,2.95
2023-05-01T07:14:30.643Z,2.80
2023-05-01T07:16:57.119Z,3.05
2023-05-01T07:19:23.599Z,2.97
2023-05-01T07:21:49.973Z,2.97
2023-05-01T07:24:16.787Z,2.97
2023-05-01T07:26:43.174Z,3.05
2023-05-01T07:29:09.514Z,3.20
2023-05-01T07:31:36.298Z,2.75
2023-05-01T07:34:02.652Z,2.90
2023-05-01T07:36:29.418Z,2.90
2023-05-01T07:38:56.584Z,2.78
2023-05-01T07:41:25.058Z,2.65
2023-05-01T07:43:51.459Z,2.95
2023-05-01T07:46:19.077Z,2.93
2023-05-01T07:48:46.356Z,2.78
2023-05-01T07:51:12.908Z,2.75
2023-05-01T07:53:40.726Z,3.20
2023-05-01T07:56:09.004Z,2.80
2023-05-01T07:58:37.081Z,2.70
2023-05-01T08:01:04.102Z,2.50
2023-05-01T08:03:31.128Z,3.30
2023-05-01T08:05:58.065Z,2.90
2023-05-01T08:08:24.866Z,2.97
2023-05-01T08:10:51.985Z,2.90
2023-05-01T08:13:18.498Z,2.90
2023-05-01T08:15:47.412Z,3.15
2023-05-01T08:18:19.608Z,3.10
2023-05-01T08:20:49.655Z,2.70
2023-05-01T08:23:17.212Z,2.93
2023-05-01T08:25:46.622Z,2.53
2023-05-01T08:28:14.693Z,3.13
2023-05-01T08:30:41.117Z,2.90
2023-05-01T08:33:07.748Z,3.05
2023-05-01T08:35:34.182Z,2.70
2023-05-01T08:38:01.609Z,2.80
2023-05-01T08:40:34.416Z,3.00
2023-05-01T08:43:01.307Z,2.92
2023-05-01T08:45:30.988Z,3.00
2023-05-01T08:47:58.881Z,3.33
2023-05-01T08:50:25.975Z,2.90
2023-05-01T08:52:53.052Z,3.28
2023-05-01T08:55:20.782Z,3.28
2023-05-01T08:57:48.471Z,2.80
2023-05-01T09:00:19.568Z,3.10
2023-05-01T09:02:48.567Z,3.28
2023-05-01T09:05:19.363Z,2.83
2023-05-01T09:07:46.616Z,2.92
2023-05-01T09:10:15.304Z,2.60
2023-05-01T09:12:44.893Z,3.10
2023-05-01T09:15:12.398Z,2.80
2023-05-01T09:17:40.008Z,2.63
2023-05-01T09:20:07.777Z,3.10
2023-05-01T09:22:35.063Z,3.05
2023-05-01T09:25:02.059Z,2.47
2023-05-01T09:27:30.019Z,2.95
2023-05-01T09:29:56.560Z,3.20
2023-05-01T09:32:30.627Z,3.03
2023-05-01T09:35:13.574Z,3.00
2023-05-01T09:37:40.928Z,2.97
2023-05-01T09:40:14.586Z,3.28
2023-05-01T09:42:49.363Z,3.10
2023-05-01T09:45:18.594Z,3.08
2023-05-01T09:47:46.783Z,3.50
2023-05-01T09:50:33.007Z,3.03
2023-05-01T09:53:02.019Z,3.03
2023-05-01T09:55:28.385Z,3.58
2023-05-01T09:57:54.755Z,3.63
2023-05-01T10:00:22.086Z,3.50
2023-05-01T10:02:49.807Z,3.50
2023-05-01T10:05:16.872Z,3.67
2023-05-01T10:07:59.264Z,3.22
2023-05-01T10:10:26.235Z,3.70
2023-05-01T10:12:52.841Z,3.58
2023-05-01T10:15:26.101Z,3.30
2023-05-01T10:17:54.169Z,3.28
2023-05-01T10:20:21.356Z,3.25
2023-05-01T10:22:48.878Z,3.30
2023-05-01T10:25:17.832Z,3.70
2023-05-01T10:27:44.374Z,3.33
2023-05-01T10:30:11.316Z,3.60
2023-05-01T10:32:40.978Z,3.35
2023-05-01T10:35:12.321Z,3.30
2023-05-01T10:37:46.380Z,3.50
2023-05-01T10:40:48.149Z,3.10
2023-05-01T10:43:28.667Z,3.15
2023-05-01T10:46:19.177Z,3.53
2023-05-01T10:48:45.644Z,3.72
2023-05-01T10:51:17.876Z,3.28
2023-05-01T10:53:46.069Z,2.93
2023-05-01T10:56:21.807Z,3.03
2023-05-01T10:58:53.917Z,3.67
2023-05-01T11:01:42.679Z,3.70
2023-05-01T11:04:27.366Z,3.80
2023-05-01T11:07:07.494Z,3.60
2023-05-01T11:09:39.628Z,3.55
2023-05-01T11:12:07.026Z,3.70
2023-05-01T11:15:03.492Z,3.50
2023-05-01T11:17:42.202Z,4.07
2023-05-01T11:20:13.630Z,3.90
2023-05-01T11:22:46.320Z,3.90
2023-05-01T11:25:27.574Z,4.10
2023-05-01T11:27:57.041Z,3.78
2023-05-01T11:30:23.802Z,4.30
2023-05-01T11:32:51.197Z,3.63
2023-05-01T11:35:20.831Z,4.00
2023-05-01T11:37:47.907Z,3.85
2023-05-01T11:40:25.805Z,4.05
2023-05-01T11:43:06.803Z,3.80
2023-05-01T11:45:35.284Z,4.03
2023-05-01T11:48:04.544Z,4.00
2023-05-01T11:50:33.100Z,4.05
2023-05-01T11:52:59.534Z,3.42
2023-05-01T11:55:33.009Z,4.00
2023-05-01T11:57:59.545Z,3.47
2023-05-01T12:00:34.859Z,3.65
2023-05-01T12:03:03.313Z,3.90
2023-05-01T12:05:31.260Z,3.65
2023-05-01T12:08:24.321Z,3.72
2023-05-01T12:10:58.286Z,3.40
2023-05-01T12:13:26.065Z,3.38
2023-05-01T12:15:54.642Z,3.42
2023-05-01T12:18:21.963Z,3.55
2023-05-01T12:20:54.222Z,3.05
2023-05-01T12:23:32.330Z,3.40
2023-05-01T12:25:58.778Z,3.67
2023-05-01T12:28:26.593Z,3.40
2023-05-01T12:30:56.118Z,3.30
2023-05-01T12:33:22.509Z,3.50
2023-05-01T12:35:50.621Z,3.27
2023-05-01T12:38:18.905Z,3.33
2023-05-01T12:40:53.249Z,3.78
2023-05-01T12:43:29.334Z,4.10
2023-05-01T12:45:55.860Z,3.58
2023-05-01T12:48:22.907Z,3.70
2023-05-01T12:50:54.897Z,3.40
2023-05-01T12:53:25.729Z,3.53
2023-05-01T12:55:54.287Z,3.78
2023-05-01T12:58:20.966Z,3.72
2023-05-01T13:00:51.283Z,3.43
2023-05-01T13:03:28.029Z,3.55
2023-05-01T13:06:03.712Z,3.00
2023-05-01T13:08:36.711Z,3.58
2023-05-01T13:11:14.164Z,3.15
2023-05-01T13:13:40.838Z,3.30
2023-05-01T13:16:12.147Z,3.40
2023-05-01T13:18:49.889Z,2.92
2023-05-01T13:21:18.833Z,3.38
2023-05-01T13:23:59.933Z,2.97
2023-05-01T13:26:31.396Z,3.53
2023-05-01T13:28:59.909Z,3.70
2023-05-01T13:31:26.735Z,3.63
2023-05-01T13:33:54.926Z,3.38
2023-05-01T13:36:26.302Z,3.50
2023-05-01T13:38:55.952Z,3.40
2023-05-01T13:41:29.075Z,3.40
2023-05-01T13:43:57.111Z,3.40
2023-05-01T13:46:26.382Z,3.40
2023-05-01T13:48:53.212Z,3.55
2023-05-01T13:51:24.452Z,3.70
2023-05-01T13:53:53.301Z,3.28
2023-05-01T13:56:21.436Z,3.47
2023-05-01T13:58:47.857Z,3.75
2023-05-01T14:01:16.494Z,3.30
2023-05-01T14:03:43.114Z,3.53
2023-05-01T14:06:20.727Z,4.20
2023-05-01T14:08:48.397Z,4.00
2023-05-01T14:11:15.559Z,3.30
2023-05-01T14:13:44.174Z,3.92
2023-05-01T14:16:16.102Z,3.70
2023-05-01T14:18:46.052Z,4.28
2023-05-01T14:21:15.070Z,5.07
2023-05-01T14:23:44.187Z,5.05
2023-05-01T14:26:11.914Z,4.60
2023-05-01T14:28:42.551Z,4.00
2023-05-01T14:31:09.021Z,3.50
2023-05-01T14:33:42.580Z,3.80
2023-05-01T14:36:09.010Z,3.60
2023-05-01T14:38:39.133Z,3.47
2023-05-01T14:41:05.876Z,3.60
2023-05-01T14:43:33.608Z,3.80
2023-05-01T14:46:00.349Z,3.88
2023-05-01T14:48:35.895Z,4.18
2023-05-01T14:51:04.385Z,4.13
2023-05-01T14:53:32.576Z,3.90
2023-05-01T14:55:59.024Z,3.40
2023-05-01T14:58:25.466Z,4.18
2023-05-01T15:00:51.950Z,3.58
2023-05-01T15:03:18.424Z,3.63
2023-05-01T15:05:45.995Z,3.37
2023-05-01T15:08:12.419Z,4.00
2023-05-01T15:10:38.930Z,3.38
2023-05-01T15:13:06.556Z,3.20
2023-05-01T15:15:32.956Z,3.40
2023-05-01T15:17:59.414Z,3.90
2023-05-01T15:20:25.830Z,3.67
2023-05-01T15:22:52.249Z,3.50
2023-05-01T15:25:18.776Z,3.33
2023-05-01T15:27:46.093Z,2.90
2023-05-01T15:30:14.415Z,3.30
2023-05-01T15:32:41.113Z,3.08
2023-05-01T15:35:09.141Z,2.80
2023-05-01T15:37:35.670Z,2.60
2023-05-01T15:40:04.229Z,2.90
2023-05-01T15:42:30.618Z,3.30
2023-05-01T15:44:57.063Z,2.85
2023-05-01T15:47:23.685Z,3.65
2023-05-01T15:49:50.066Z,3.63
2023-05-01T15:52:16.821Z,3.60
2023-05-01T15:54:46.109Z,4.60
2023-05-01T15:57:12.501Z,4.90
2023-05-01T15:59:40.408Z,5.30
2023-05-01T16:02:08.734Z,4.55
2023-05-01T16:04:35.616Z,4.13
2023-05-01T16:07:03.168Z,3.80
2023-05-01T16:09:33.784Z,4.38
2023-05-01T16:12:02.904Z,4.30
2023-05-01T16:14:29.407Z,3.95
2023-05-01T16:16:55.811Z,3.92
2023-05-01T16:19:22.536Z,4.10
2023-05-01T16:21:48.924Z,3.70
2023-05-01T16:24:15.408Z,4.30
2023-05-01T16:26:41.937Z,3.92
2023-05-01T16:29:08.363Z,4.03
2023-05-01T16:31:38.662Z,3.70
2023-05-01T16:34:07.058Z,3.80
2023-05-01T16:36:39.923Z,3.67
2023-05-01T16:39:08.358Z,3.38
2023-05-01T16:41:45.218Z,4.07
2023-05-01T16:44:13.187Z,4.30
2023-05-01T16:46:41.719Z,4.63
2023-05-01T16:49:11.624Z,4.43
2023-05-01T16:51:39.472Z,4.10
2023-05-01T16:54:05.826Z,4.13
2023-05-01T16:56:32.470Z,4.37
2023-05-01T16:58:59.385Z,6.55
2023-05-01T17:01:25.757Z,7.90
2023-05-01T17:03:52.349Z,6.95
2023-05-01T17:06:18.769Z,6.90
2023-05-01T17:08:45.478Z,6.67
2023-05-01T17:11:14.338Z,5.95
2023-05-01T17:13:40.852Z,4.28
2023-05-01T17:16:08.226Z,3.80
2023-05-01T17:18:34.657Z,3.80
2023-05-01T17:21:00.993Z,3.63
2023-05-01T17:23:28.883Z,4.07
2023-05-01T17:25:56.242Z,3.80
2023-05-01T17:28:23.882Z,3.40
2023-05-01T17:30:50.444Z,3.20
2023-05-01T17:33:17.107Z,3.20
2023-05-01T17:35:43.900Z,3.58
2023-05-01T17:38:10.274Z,3.33
2023-05-01T17:40:36.791Z,3.45
2023-05-01T17:43:03.318Z,3.63
2023-05-01T17:45:29.712Z,3.50
2023-05-01T17:47:56.148Z,3.60
2023-05-01T17:50:22.609Z,3.50
2023-05-01T17:52:48.997Z,3.40
2023-05-01T17:55:18.053Z,3.50
2023-05-01T17:57:46.725Z,3.60
2023-05-01T18:00:13.719Z,3.60
2023-05-01T18:02:44.256Z,3.38
2023-05-01T18:05:11.010Z,3.70
2023-05-01T18:07:37.489Z,3.80
2023-05-01T18:10:04.600Z,3.07
2023-05-01T18:12:31.722Z,2.85
2023-05-01T18:14:58.087Z,2.97
2023-05-01T18:17:25.082Z,2.65
2023-05-01T18:19:51.467Z,2.92
2023-05-01T18:22:17.841Z,2.70
2023-05-01T18:24:44.520Z,2.85
2023-05-01T18:27:11.999Z,2.83
2023-05-01T18:29:38.355Z,2.83
2023-05-01T18:32:05.050Z,3.45
2023-05-01T18:34:31.659Z,3.07
2023-05-01T18:36:58.009Z,2.60
2023-05-01T18:39:24.389Z,2.80
2023-05-01T18:41:51.181Z,2.50
2023-05-01T18:44:18.080Z,2.65
2023-05-01T18:46:44.909Z,2.63
2023-05-01T18:49:11.449Z,3.10
2023-05-01T18:51:37.931Z,3.10
2023-05-01T18:54:06.951Z,2.42
2023-05-01T18:56:33.789Z,2.28
2023-05-01T18:59:00.892Z,2.40
2023-05-01T19:01:27.274Z,2.50
2023-05-01T19:03:58.749Z,2.75
2023-05-01T19:06:26.435Z,2.15
2023-05-01T19:08:53.453Z,2.20
2023-05-01T19:11:21.442Z,2.30
2023-05-01T19:13:48.569Z,2.10
2023-05-01T19:16:15.005Z,2.13
2023-05-01T19:18:41.436Z,2.20
2023-05-01T19:21:07.871Z,2.00
2023-05-01T19:23:35.545Z,2.47
2023-05-01T19:26:04.289Z,2.25
2023-05-01T19:28:31.164Z,2.13
2023-05-01T19:30:57.810Z,2.08
2023-05-01T19:33:24.200Z,2.17
2023-05-01T19:35:50.658Z,2.23
2023-05-01T19:38:17.087Z,2.00
2023-05-01T19:40:44.865Z,2.03
2023-05-01T19:43:13.303Z,2.40
2023-05-01T19:45:39.916Z,2.10
2023-05-01T19:48:06.880Z,1.83
2023-05-01T19:50:33.523Z,2.20
2023-05-01T19:53:00.130Z,2.08
2023-05-01T19:55:26.488Z,2.13
2023-05-01T19:57:52.850Z,1.98
2023-05-01T20:00:19.528Z,2.43
2023-05-01T20:02:46.735Z,2.30
2023-05-01T20:05:14.426Z,2.05
2023-05-01T20:07:41.207Z,2.17
2023-05-01T20:10:09.596Z,2.35
2023-05-01T20:12:35.951Z,2.60
2023-05-01T20:15:02.488Z,2.20
2023-05-01T20:17:29.117Z,2.30
2023-05-01T20:19:55.728Z,2.03
2023-05-01T20:22:22.239Z,2.17
2023-05-01T20:24:48.721Z,2.20
2023-05-01T20:27:15.780Z,2.70
2023-05-01T20:29:42.176Z,2.08
2023-05-01T20:32:08.534Z,2.45
2023-05-01T20:34:34.897Z,2.70
2023-05-01T20:37:01.232Z,2.87
2023-05-01T20:39:27.720Z,2.50
2023-05-01T20:41:54.119Z,2.80
2023-05-01T20:44:20.507Z,2.70
2023-05-01T20:46:47.288Z,2.63
2023-05-01T20:49:16.024Z,2.57
2023-05-01T20:51:42.642Z,2.55
2023-05-01T20:54:09.019Z,2.85
2023-05-01T20:56:35.381Z,2.70
2023-05-01T20:59:03.493Z,2.72
2023-05-01T21:01:31.980Z,2.50
2023-05-01T21:03:59.733Z,2.53
2023-05-01T21:06:27.208Z,2.50
2023-05-01T21:08:53.682Z,2.30
2023-05-01T21:11:20.070Z,2.40
2023-05-01T21:13:46.446Z,2.30
2023-05-01T21:16:17.006Z,2.30
2023-05-01T21:18:43.554Z,2.67
2023-05-01T21:21:10.616Z,2.70
2023-05-01T21:23:45.798Z,2.58
2023-05-01T21:26:13.826Z,2.50
2023-05-01T21:28:40.174Z,2.28
2023-05-01T21:31:06.630Z,2.90
2023-05-01T21:33:33.627Z,2.63
2023-05-01T21:36:00.005Z,2.60
2023-05-01T21:38:26.392Z,2.50
2023-05-01T21:40:52.766Z,2.50
2023-05-01T21:43:19.692Z,2.55
2023-05-01T21:45:46.062Z,2.58
2023-05-01T21:48:16.088Z,2.85
2023-05-01T21:50:42.544Z,3.13
2023-05-01T21:53:08.923Z,2.72
2023-05-01T21:55:35.385Z,2.83
2023-05-01T21:58:02.110Z,2.90
2023-05-01T22:00:29.846Z,2.65
2023-05-01T22:02:56.474Z,2.70
2023-05-01T22:05:23.314Z,2.67
2023-05-01T22:07:52.082Z,3.20
2023-05-01T22:10:19.479Z,2.90
2023-05-01T22:12:46.709Z,3.05
2023-05-01T22:15:15.314Z,2.60
2023-05-01T22:17:42.006Z,2.67
2023-05-01T22:20:09.072Z,3.05
2023-05-01T22:22:36.464Z,2.92
2023-05-01T22:25:03.994Z,3.50
2023-05-01T22:27:31.130Z,3.60
2023-05-01T22:29:57.791Z,3.80
2023-05-01T22:32:24.487Z,3.60
2023-05-01T22:34:50.937Z,3.33
2023-05-01T22:37:18.809Z,3.72
2023-05-01T22:39:45.295Z,3.70
2023-05-01T22:42:11.679Z,3.88
2023-05-01T22:44:38.097Z,3.60
2023-05-01T22:47:04.445Z,4.00
2023-05-01T22:49:32.592Z,3.95
2023-05-01T22:51:59.168Z,4.13
2023-05-01T22:54:25.772Z,4.18
2023-05-01T22:56:52.342Z,4.38
2023-05-01T22:59:19.381Z,4.30
2023-05-01T23:01:46.218Z,4.68
2023-05-01T23:04:13.251Z,4.60
2023-05-01T23:06:40.225Z,5.05
2023-05-01T23:09:07.155Z,4.90
2023-05-01T23:11:34.849Z,4.65
2023-05-01T23:14:01.781Z,4.75
2023-05-01T23:16:36.083Z,5.10
2023-05-01T23:19:03.386Z,5.05
2023-05-01T23:21:29.752Z,5.18
2023-05-01T23:23:56.099Z,5.43
2023-05-01T23:26:28.643Z,5.82
2023-05-01T23:28:55.129Z,5.60
2023-05-01T23:31:25.576Z,5.80
2023-05-01T23:33:53.247Z,6.35
2023-05-01T23:36:19.792Z,6.07
2023-05-01T23:38:47.011Z,6.60
2023-05-01T23:41:13.953Z,6.67
2023-05-01T23:43:40.580Z,7.10
2023-05-01T23:46:10.118Z,7.80
2023-05-01T23:48:37.010Z,7.53
2023-05-01T23:51:03.834Z,8.02
2023-05-01T23:53:30.388Z,7.83
2023-05-01T23:55:56.919Z,7.60
2023-05-01T23:58:23.985Z,8.73
